sensor_id;sensor_type;location;lat;lon;timestamp;temperature;humidity
16437;DHT22;8328;52.206;21.006;2023-05-07T00:00:48;7.80;99.90
16437;DHT22;8328;52.206;21.006;2023-05-07T00:03:15;7.80;99.90
16437;DHT22;8328;52.206;21.006;2023-05-07T00:05:40;7.80;99.90
16437;DHT22;8328;52.206;21.006;2023-05-07T00:08:07;7.80;99.90
16437;DHT22;8328;52.206;21.006;2023-05-07T00:10:33;7.80;99.90
16437;DHT22;8328;52.206;21.006;2023-05-07T00:12:59;7.80;99.90
16437;DHT22;8328;52.206;21.006;2023-05-07T00:15:24;7.80;99.90
16437;DHT22;8328;52.206;21.006;2023-05-07T00:17:50;7.80;99.90
16437;DHT22;8328;52.206;21.006;2023-05-07T00:20:19;7.70;99.90
16437;DHT22;8328;52.206;21.006;2023-05-07T00:22:44;7.70;99.90
16437;DHT22;8328;52.206;21.006;2023-05-07T00:25:10;7.70;99.90
16437;DHT22;8328;52.206;21.006;2023-05-07T00:27:36;7.60;99.90
16437;DHT22;8328;52.206;21.006;2023-05-07T00:30:02;7.60;99.90
16437;DHT22;8328;52.206;21.006;2023-05-07T00:32:28;7.70;99.90
16437;DHT22;8328;52.206;21.006;2023-05-07T00:34:53;7.70;99.90
16437;DHT22;8328;52.206;21.006;2023-05-07T00:37:19;7.80;99.90
16437;DHT22;8328;52.206;21.006;2023-05-07T00:39:45;7.70;99.90
16437;DHT22;8328;52.206;21.006;2023-05-07T00:42:10;7.60;99.90
16437;DHT22;8328;52.206;21.006;2023-05-07T00:44:36;7.60;99.90
16437;DHT22;8328;52.206;21.006;2023-05-07T00:47:03;7.60;99.90
16437;DHT22;8328;52.206;21.006;2023-05-07T00:49:46;7.60;99.90
16437;DHT22;8328;52.206;21.006;2023-05-07T00:52:14;7.60;99.90
16437;DHT22;8328;52.206;21.006;2023-05-07T00:54:42;7.60;99.90
16437;DHT22;8328;52.206;21.006;2023-05-07T00:57:09;7.50;99.90
16437;DHT22;8328;52.206;21.006;2023-05-07T00:59:37;7.50;99.90
16437;DHT22;8328;52.206;21.006;2023-05-07T01:02:03;7.50;99.90
16437;DHT22;8328;52.206;21.006;2023-05-07T01:04:29;7.50;99.90
16437;DHT22;8328;52.206;21.006;2023-05-07T01:06:55;7.50;99.90
16437;DHT22;8328;52.206;21.006;2023-05-07T01:09:23;7.40;99.90
16437;DHT22;8328;52.206;21.006;2023-05-07T01:11:50;7.60;99.90
16437;DHT22;8328;52.206;21.006;2023-05-07T01:14:17;7.50;99.90
16437;DHT22;8328;52.206;21.006;2023-05-07T01:16:43;7.50;99.90
16437;DHT22;8328;52.206;21.006;2023-05-07T01:19:11;7.40;99.90
16437;DHT22;8328;52.206;21.006;2023-05-07T01:21:45;7.30;99.90
16437;DHT22;8328;52.206;21.006;2023-05-07T01:24:12;7.30;99.90
16437;DHT22;8328;52.206;21.006;2023-05-07T01:26:38;7.30;99.90
16437;DHT22;8328;52.206;21.006;2023-05-07T01:29:05;7.30;99.90
16437;DHT22;8328;52.206;21.006;2023-05-07T01:31:32;7.40;99.90
16437;DHT22;8328;52.206;21.006;2023-05-07T01:34:01;7.50;99.90
16437;DHT22;8328;52.206;21.006;2023-05-07T01:36:29;7.50;99.90
16437;DHT22;8328;52.206;21.006;2023-05-07T01:38:57;7.50;99.90
16437;DHT22;8328;52.206;21.006;2023-05-07T01:41:23;7.50;99.90
16437;DHT22;8328;52.206;21.006;2023-05-07T01:43:51;7.40;99.90
16437;DHT22;8328;52.206;21.006;2023-05-07T01:46:18;7.50;99.90
16437;DHT22;8328;52.206;21.006;2023-05-07T01:48:45;7.50;99.90
16437;DHT22;8328;52.206;21.006;2023-05-07T01:51:11;7.50;99.90
16437;DHT22;8328;52.206;21.006;2023-05-07T01:53:38;7.30;99.90
16437;DHT22;8328;52.206;21.006;2023-05-07T01:56:05;7.40;99.90
16437;DHT22;8328;52.206;21.006;2023-05-07T01:58:31;7.40;99.90
16437;DHT22;8328;52.206;21.006;2023-05-07T02:00:56;7.40;99.90
16437;DHT22;8328;52.206;21.006;2023-05-07T02:03:22;7.50;99.90
16437;DHT22;8328;52.206;21.006;2023-05-07T02:05:48;7.50;99.90
16437;DHT22;8328;52.206;21.006;2023-05-07T02:08:14;7.40;99.90
16437;DHT22;8328;52.206;21.006;2023-05-07T02:10:40;7.40;99.90
16437;DHT22;8328;52.206;21.006;2023-05-07T02:13:05;7.40;99.90
16437;DHT22;8328;52.206;21.006;2023-05-07T02:15:31;7.40;99.90
16437;DHT22;8328;52.206;21.006;2023-05-07T02:18:26;7.30;99.90
16437;DHT22;8328;52.206;21.006;2023-05-07T02:20:52;7.30;99.90
16437;DHT22;8328;52.206;21.006;2023-05-07T02:23:18;7.30;99.90
16437;DHT22;8328;52.206;21.006;2023-05-07T02:25:45;7.30;99.90
16437;DHT22;8328;52.206;21.006;2023-05-07T02:28:11;7.30;99.90
16437;DHT22;8328;52.206;21.006;2023-05-07T02:30:39;7.30;99.90
16437;DHT22;8328;52.206;21.006;2023-05-07T02:33:05;7.30;99.90
16437;DHT22;8328;52.206;21.006;2023-05-07T02:35:32;7.30;99.90
16437;DHT22;8328;52.206;21.006;2023-05-07T02:37:58;7.30;99.90
16437;DHT22;8328;52.206;21.006;2023-05-07T02:40:24;7.30;99.90
16437;DHT22;8328;52.206;21.006;2023-05-07T02:42:49;7.20;99.90
16437;DHT22;8328;52.206;21.006;2023-05-07T02:45:15;7.20;99.90
16437;DHT22;8328;52.206;21.006;2023-05-07T02:47:41;7.20;99.90
16437;DHT22;8328;52.206;21.006;2023-05-07T02:50:07;7.10;99.90
16437;DHT22;8328;52.206;21.006;2023-05-07T02:52:33;7.20;99.90
16437;DHT22;8328;52.206;21.006;2023-05-07T02:54:58;7.30;99.90
16437;DHT22;8328;52.206;21.006;2023-05-07T02:57:24;7.30;99.90
16437;DHT22;8328;52.206;21.006;2023-05-07T02:59:50;7.30;99.90
16437;DHT22;8328;52.206;21.006;2023-05-07T03:02:16;7.30;99.90
16437;DHT22;8328;52.206;21.006;2023-05-07T03:04:42;7.30;99.90
16437;DHT22;8328;52.206;21.006;2023-05-07T03:07:07;7.40;99.90
16437;DHT22;8328;52.206;21.006;2023-05-07T03:09:33;7.40;99.90
16437;DHT22;8328;52.206;21.006;2023-05-07T03:11:59;7.40;99.90
16437;DHT22;8328;52.206;21.006;2023-05-07T03:14:25;7.40;99.90
16437;DHT22;8328;52.206;21.006;2023-05-07T03:16:51;7.40;99.90
16437;DHT22;8328;52.206;21.006;2023-05-07T03:19:16;7.40;99.90
16437;DHT22;8328;52.206;21.006;2023-05-07T03:21:42;7.30;99.90
16437;DHT22;8328;52.206;21.006;2023-05-07T03:24:08;7.50;99.90
16437;DHT22;8328;52.206;21.006;2023-05-07T03:26:34;7.50;99.90
16437;DHT22;8328;52.206;21.006;2023-05-07T03:28:59;7.60;99.90
16437;DHT22;8328;52.206;21.006;2023-05-07T03:31:25;7.60;99.90
16437;DHT22;8328;52.206;21.006;2023-05-07T03:33:56;7.60;99.90
16437;DHT22;8328;52.206;21.006;2023-05-07T03:36:22;7.60;99.90
16437;DHT22;8328;52.206;21.006;2023-05-07T03:38:48;7.60;99.90
16437;DHT22;8328;52.206;21.006;2023-05-07T03:41:15;7.50;99.90
16437;DHT22;8328;52.206;21.006;2023-05-07T03:43:43;7.50;99.90
16437;DHT22;8328;52.206;21.006;2023-05-07T03:46:09;7.60;99.90
16437;DHT22;8328;52.206;21.006;2023-05-07T03:48:35;7.60;99.90
16437;DHT22;8328;52.206;21.006;2023-05-07T03:51:01;7.60;99.90
16437;DHT22;8328;52.206;21.006;2023-05-07T03:53:26;7.60;99.90
16437;DHT22;8328;52.206;21.006;2023-05-07T03:55:52;7.60;99.90
16437;DHT22;8328;52.206;21.006;2023-05-07T03:58:18;7.60;99.90
16437;DHT22;8328;52.206;21.006;2023-05-07T04:00:43;7.60;99.90
16437;DHT22;8328;52.206;21.006;2023-05-07T04:03:09;7.70;99.90
16437;DHT22;8328;52.206;21.006;2023-05-07T04:05:35;7.70;99.90
16437;DHT22;8328;52.206;21.006;2023-05-07T04:08:01;7.70;99.90
16437;DHT22;8328;52.206;21.006;2023-05-07T04:10:29;7.80;99.90
16437;DHT22;8328;52.206;21.006;2023-05-07T04:12:55;7.90;99.90
16437;DHT22;8328;52.206;21.006;2023-05-07T04:15:20;7.90;99.90
16437;DHT22;8328;52.206;21.006;2023-05-07T04:17:46;7.90;99.90
16437;DHT22;8328;52.206;21.006;2023-05-07T04:20:16;7.90;99.90
16437;DHT22;8328;52.206;21.006;2023-05-07T04:22:43;8.00;99.90
16437;DHT22;8328;52.206;21.006;2023-05-07T04:25:09;8.00;99.90
16437;DHT22;8328;52.206;21.006;2023-05-07T04:27:35;8.00;99.90
16437;DHT22;8328;52.206;21.006;2023-05-07T04:30:02;8.00;99.90
16437;DHT22;8328;52.206;21.006;2023-05-07T04:32:28;8.00;99.90
16437;DHT22;8328;52.206;21.006;2023-05-07T04:34:55;8.00;99.90
16437;DHT22;8328;52.206;21.006;2023-05-07T04:37:21;7.90;99.90
16437;DHT22;8328;52.206;21.006;2023-05-07T04:39:47;7.90;99.90
16437;DHT22;8328;52.206;21.006;2023-05-07T04:42:17;7.80;99.90
16437;DHT22;8328;52.206;21.006;2023-05-07T04:44:44;7.80;99.90
16437;DHT22;8328;52.206;21.006;2023-05-07T04:47:11;7.80;99.90
16437;DHT22;8328;52.206;21.006;2023-05-07T04:49:38;7.90;99.90
16437;DHT22;8328;52.206;21.006;2023-05-07T04:52:04;8.00;99.90
16437;DHT22;8328;52.206;21.006;2023-05-07T04:54:30;8.00;99.90
16437;DHT22;8328;52.206;21.006;2023-05-07T04:56:56;7.90;99.90
16437;DHT22;8328;52.206;21.006;2023-05-07T04:59:22;7.90;99.90
16437;DHT22;8328;52.206;21.006;2023-05-07T05:01:48;8.00;99.90
16437;DHT22;8328;52.206;21.006;2023-05-07T05:04:13;8.10;99.90
16437;DHT22;8328;52.206;21.006;2023-05-07T05:06:39;8.20;99.90
16437;DHT22;8328;52.206;21.006;2023-05-07T05:09:05;8.30;99.90
16437;DHT22;8328;52.206;21.006;2023-05-07T05:11:32;8.40;99.90
16437;DHT22;8328;52.206;21.006;2023-05-07T05:14:00;8.50;99.90
16437;DHT22;8328;52.206;21.006;2023-05-07T05:16:26;8.60;99.90
16437;DHT22;8328;52.206;21.006;2023-05-07T05:18:53;8.70;99.90
16437;DHT22;8328;52.206;21.006;2023-05-07T05:21:20;8.90;99.90
16437;DHT22;8328;52.206;21.006;2023-05-07T05:23:46;9.70;99.90
16437;DHT22;8328;52.206;21.006;2023-05-07T05:26:12;9.70;99.90
16437;DHT22;8328;52.206;21.006;2023-05-07T05:28:38;10.10;99.90
16437;DHT22;8328;52.206;21.006;2023-05-07T05:31:04;10.30;99.90
16437;DHT22;8328;52.206;21.006;2023-05-07T05:33:30;10.50;99.90
16437;DHT22;8328;52.206;21.006;2023-05-07T05:35:56;10.50;99.90
16437;DHT22;8328;52.206;21.006;2023-05-07T05:38:22;10.50;99.90
16437;DHT22;8328;52.206;21.006;2023-05-07T05:40:47;10.50;99.90
16437;DHT22;8328;52.206;21.006;2023-05-07T05:43:14;10.50;99.90
16437;DHT22;8328;52.206;21.006;2023-05-07T05:45:40;10.60;99.90
16437;DHT22;8328;52.206;21.006;2023-05-07T05:48:06;10.60;99.90
16437;DHT22;8328;52.206;21.006;2023-05-07T05:50:31;10.60;99.90
16437;DHT22;8328;52.206;21.006;2023-05-07T05:52:57;10.70;99.90
16437;DHT22;8328;52.206;21.006;2023-05-07T05:55:23;10.70;99.90
16437;DHT22;8328;52.206;21.006;2023-05-07T05:57:49;10.80;99.90
16437;DHT22;8328;52.206;21.006;2023-05-07T06:00:16;11.00;99.90
16437;DHT22;8328;52.206;21.006;2023-05-07T06:02:42;10.80;99.90
16437;DHT22;8328;52.206;21.006;2023-05-07T06:05:10;10.80;99.90
16437;DHT22;8328;52.206;21.006;2023-05-07T06:07:36;10.70;99.90
16437;DHT22;8328;52.206;21.006;2023-05-07T06:10:02;10.90;99.90
16437;DHT22;8328;52.206;21.006;2023-05-07T06:12:27;10.90;99.90
16437;DHT22;8328;52.206;21.006;2023-05-07T06:14:53;10.50;99.90
16437;DHT22;8328;52.206;21.006;2023-05-07T06:17:19;11.10;99.90
16437;DHT22;8328;52.206;21.006;2023-05-07T06:19:44;11.10;99.90
16437;DHT22;8328;52.206;21.006;2023-05-07T06:22:10;11.20;99.90
16437;DHT22;8328;52.206;21.006;2023-05-07T06:24:36;11.40;99.90
16437;DHT22;8328;52.206;21.006;2023-05-07T06:27:02;11.50;99.90
16437;DHT22;8328;52.206;21.006;2023-05-07T06:29:28;11.90;99.90
16437;DHT22;8328;52.206;21.006;2023-05-07T06:32:05;12.00;99.90
16437;DHT22;8328;52.206;21.006;2023-05-07T06:34:31;12.20;99.90
16437;DHT22;8328;52.206;21.006;2023-05-07T06:36:57;12.20;99.90
16437;DHT22;8328;52.206;21.006;2023-05-07T06:39:23;12.10;99.90
16437;DHT22;8328;52.206;21.006;2023-05-07T06:41:51;12.10;99.90
16437;DHT22;8328;52.206;21.006;2023-05-07T06:44:16;12.20;99.90
16437;DHT22;8328;52.206;21.006;2023-05-07T06:46:42;12.20;99.90
16437;DHT22;8328;52.206;21.006;2023-05-07T06:49:08;12.30;99.90
16437;DHT22;8328;52.206;21.006;2023-05-07T06:51:34;12.50;99.90
16437;DHT22;8328;52.206;21.006;2023-05-07T06:54:00;12.60;99.90
16437;DHT22;8328;52.206;21.006;2023-05-07T06:56:25;12.50;99.90
16437;DHT22;8328;52.206;21.006;2023-05-07T06:58:54;12.80;99.90
16437;DHT22;8328;52.206;21.006;2023-05-07T07:01:20;12.80;99.90
16437;DHT22;8328;52.206;21.006;2023-05-07T07:03:46;12.60;99.90
16437;DHT22;8328;52.206;21.006;2023-05-07T07:06:12;12.50;99.90
16437;DHT22;8328;52.206;21.006;2023-05-07T07:08:38;12.60;99.90
16437;DHT22;8328;52.206;21.006;2023-05-07T07:11:05;12.60;99.90
16437;DHT22;8328;52.206;21.006;2023-05-07T07:13:31;12.70;99.90
16437;DHT22;8328;52.206;21.006;2023-05-07T07:15:57;13.10;99.90
16437;DHT22;8328;52.206;21.006;2023-05-07T07:18:22;13.30;99.90
16437;DHT22;8328;52.206;21.006;2023-05-07T07:20:54;13.50;99.90
16437;DHT22;8328;52.206;21.006;2023-05-07T07:23:20;13.60;99.90
16437;DHT22;8328;52.206;21.006;2023-05-07T07:25:46;13.60;99.90
16437;DHT22;8328;52.206;21.006;2023-05-07T07:28:12;13.70;99.90
16437;DHT22;8328;52.206;21.006;2023-05-07T07:30:38;13.40;99.90
16437;DHT22;8328;52.206;21.006;2023-05-07T07:33:05;13.50;99.90
16437;DHT22;8328;52.206;21.006;2023-05-07T07:35:34;13.80;99.90
16437;DHT22;8328;52.206;21.006;2023-05-07T07:38:03;13.90;99.90
16437;DHT22;8328;52.206;21.006;2023-05-07T07:40:29;13.70;99.90
16437;DHT22;8328;52.206;21.006;2023-05-07T07:42:57;13.90;99.90
16437;DHT22;8328;52.206;21.006;2023-05-07T07:45:22;14.30;99.90
16437;DHT22;8328;52.206;21.006;2023-05-07T07:47:48;14.20;99.90
16437;DHT22;8328;52.206;21.006;2023-05-07T07:50:14;14.00;99.90
16437;DHT22;8328;52.206;21.006;2023-05-07T07:52:40;13.90;99.90
16437;DHT22;8328;52.206;21.006;2023-05-07T07:55:06;14.20;99.90
16437;DHT22;8328;52.206;21.006;2023-05-07T07:57:33;14.30;99.90
16437;DHT22;8328;52.206;21.006;2023-05-07T07:59:58;14.10;99.90
16437;DHT22;8328;52.206;21.006;2023-05-07T08:02:24;14.00;99.90
16437;DHT22;8328;52.206;21.006;2023-05-07T08:04:50;14.10;99.90
16437;DHT22;8328;52.206;21.006;2023-05-07T08:07:16;14.40;99.90
16437;DHT22;8328;52.206;21.006;2023-05-07T08:09:46;14.70;99.90
16437;DHT22;8328;52.206;21.006;2023-05-07T08:12:15;14.80;99.90
16437;DHT22;8328;52.206;21.006;2023-05-07T08:14:41;14.90;99.90
16437;DHT22;8328;52.206;21.006;2023-05-07T08:17:06;15.10;99.90
16437;DHT22;8328;52.206;21.006;2023-05-07T08:19:34;15.10;99.90
16437;DHT22;8328;52.206;21.006;2023-05-07T08:22:00;15.20;99.90
16437;DHT22;8328;52.206;21.006;2023-05-07T08:24:26;15.40;99.90
16437;DHT22;8328;52.206;21.006;2023-05-07T08:26:53;15.70;99.90
16437;DHT22;8328;52.206;21.006;2023-05-07T08:29:19;15.70;99.90
16437;DHT22;8328;52.206;21.006;2023-05-07T08:31:45;15.60;99.90
16437;DHT22;8328;52.206;21.006;2023-05-07T08:34:13;15.50;99.90
16437;DHT22;8328;52.206;21.006;2023-05-07T08:36:39;15.50;99.90
16437;DHT22;8328;52.206;21.006;2023-05-07T08:39:07;15.40;99.90
16437;DHT22;8328;52.206;21.006;2023-05-07T08:41:33;15.50;99.90
16437;DHT22;8328;52.206;21.006;2023-05-07T08:44:03;15.10;99.90
16437;DHT22;8328;52.206;21.006;2023-05-07T08:46:31;15.40;99.90
16437;DHT22;8328;52.206;21.006;2023-05-07T08:48:59;15.20;99.90
16437;DHT22;8328;52.206;21.006;2023-05-07T08:51:25;17.00;99.90
16437;DHT22;8328;52.206;21.006;2023-05-07T08:53:51;15.80;99.90
16437;DHT22;8328;52.206;21.006;2023-05-07T08:56:17;15.60;99.90
16437;DHT22;8328;52.206;21.006;2023-05-07T08:58:45;15.70;99.90
16437;DHT22;8328;52.206;21.006;2023-05-07T09:01:15;14.90;99.90
16437;DHT22;8328;52.206;21.006;2023-05-07T09:03:44;15.60;99.90
16437;DHT22;8328;52.206;21.006;2023-05-07T09:06:11;15.10;99.90
16437;DHT22;8328;52.206;21.006;2023-05-07T09:08:36;15.00;99.90
16437;DHT22;8328;52.206;21.006;2023-05-07T09:11:02;14.90;99.90
16437;DHT22;8328;52.206;21.006;2023-05-07T09:13:29;15.20;99.90
16437;DHT22;8328;52.206;21.006;2023-05-07T09:15:55;15.40;99.90
16437;DHT22;8328;52.206;21.006;2023-05-07T09:18:26;15.30;99.90
16437;DHT22;8328;52.206;21.006;2023-05-07T09:20:52;16.00;99.90
16437;DHT22;8328;52.206;21.006;2023-05-07T09:23:18;16.10;99.90
16437;DHT22;8328;52.206;21.006;2023-05-07T09:25:44;16.40;99.90
16437;DHT22;8328;52.206;21.006;2023-05-07T09:28:10;16.40;99.90
16437;DHT22;8328;52.206;21.006;2023-05-07T09:30:36;16.30;99.90
16437;DHT22;8328;52.206;21.006;2023-05-07T09:33:03;16.30;98.50
16437;DHT22;8328;52.206;21.006;2023-05-07T09:35:30;16.20;97.40
16437;DHT22;8328;52.206;21.006;2023-05-07T09:37:57;16.20;96.80
16437;DHT22;8328;52.206;21.006;2023-05-07T09:40:25;16.30;97.30
16437;DHT22;8328;52.206;21.006;2023-05-07T09:42:51;17.20;95.30
16437;DHT22;8328;52.206;21.006;2023-05-07T09:45:27;17.00;93.20
16437;DHT22;8328;52.206;21.006;2023-05-07T09:47:55;17.30;92.50
16437;DHT22;8328;52.206;21.006;2023-05-07T09:50:27;17.20;90.80
16437;DHT22;8328;52.206;21.006;2023-05-07T09:52:57;17.20;91.00
16437;DHT22;8328;52.206;21.006;2023-05-07T09:55:23;16.60;91.10
16437;DHT22;8328;52.206;21.006;2023-05-07T09:57:53;16.40;91.70
16437;DHT22;8328;52.206;21.006;2023-05-07T10:00:20;16.50;91.10
16437;DHT22;8328;52.206;21.006;2023-05-07T10:02:50;16.80;91.80
16437;DHT22;8328;52.206;21.006;2023-05-07T10:05:21;17.00;91.30
16437;DHT22;8328;52.206;21.006;2023-05-07T10:07:48;16.70;90.40
16437;DHT22;8328;52.206;21.006;2023-05-07T10:10:15;16.50;89.10
16437;DHT22;8328;52.206;21.006;2023-05-07T10:12:43;16.80;90.00
16437;DHT22;8328;52.206;21.006;2023-05-07T10:15:11;16.60;88.90
16437;DHT22;8328;52.206;21.006;2023-05-07T10:17:38;16.40;89.00
16437;DHT22;8328;52.206;21.006;2023-05-07T10:20:05;16.00;89.10
16437;DHT22;8328;52.206;21.006;2023-05-07T10:22:41;15.80;87.70
16437;DHT22;8328;52.206;21.006;2023-05-07T10:25:18;15.50;89.90
16437;DHT22;8328;52.206;21.006;2023-05-07T10:27:48;15.60;90.40
16437;DHT22;8328;52.206;21.006;2023-05-07T10:30:27;16.40;89.90
16437;DHT22;8328;52.206;21.006;2023-05-07T10:33:00;16.80;86.10
16437;DHT22;8328;52.206;21.006;2023-05-07T10:35:40;17.30;85.00
16437;DHT22;8328;52.206;21.006;2023-05-07T10:38:07;17.20;81.20
16437;DHT22;8328;52.206;21.006;2023-05-07T10:40:33;16.50;81.00
16437;DHT22;8328;52.206;21.006;2023-05-07T10:43:02;15.90;81.60
16437;DHT22;8328;52.206;21.006;2023-05-07T10:45:31;15.30;83.00
16437;DHT22;8328;52.206;21.006;2023-05-07T10:48:14;15.00;84.20
16437;DHT22;8328;52.206;21.006;2023-05-07T10:50:42;15.20;85.60
16437;DHT22;8328;52.206;21.006;2023-05-07T10:55:51;16.30;85.90
16437;DHT22;8328;52.206;21.006;2023-05-07T10:58:25;16.40;83.50
16437;DHT22;8328;52.206;21.006;2023-05-07T11:01:03;16.20;82.90
16437;DHT22;8328;52.206;21.006;2023-05-07T11:03:29;16.30;83.60
16437;DHT22;8328;52.206;21.006;2023-05-07T11:06:12;15.90;83.40
16437;DHT22;8328;52.206;21.006;2023-05-07T11:08:57;15.60;83.70
16437;DHT22;8328;52.206;21.006;2023-05-07T11:11:47;15.00;83.60
16437;DHT22;8328;52.206;21.006;2023-05-07T11:14:14;14.90;87.00
16437;DHT22;8328;52.206;21.006;2023-05-07T11:16:41;16.20;86.50
16437;DHT22;8328;52.206;21.006;2023-05-07T11:19:10;17.00;81.00
16437;DHT22;8328;52.206;21.006;2023-05-07T11:21:40;17.50;77.70
16437;DHT22;8328;52.206;21.006;2023-05-07T11:24:07;17.60;76.90
16437;DHT22;8328;52.206;21.006;2023-05-07T11:26:49;18.00;76.90
16437;DHT22;8328;52.206;21.006;2023-05-07T11:29:18;18.00;72.90
16437;DHT22;8328;52.206;21.006;2023-05-07T11:31:48;17.70;72.50
16437;DHT22;8328;52.206;21.006;2023-05-07T11:34:15;17.80;71.90
16437;DHT22;8328;52.206;21.006;2023-05-07T11:36:47;19.00;71.50
16437;DHT22;8328;52.206;21.006;2023-05-07T11:39:31;18.40;68.20
16437;DHT22;8328;52.206;21.006;2023-05-07T11:41:59;18.70;65.30
16437;DHT22;8328;52.206;21.006;2023-05-07T11:44:38;18.60;65.60
16437;DHT22;8328;52.206;21.006;2023-05-07T11:47:07;18.40;64.90
16437;DHT22;8328;52.206;21.006;2023-05-07T11:49:34;18.30;65.20
16437;DHT22;8328;52.206;21.006;2023-05-07T11:52:00;18.30;64.70
16437;DHT22;8328;52.206;21.006;2023-05-07T11:54:26;18.90;67.40
16437;DHT22;8328;52.206;21.006;2023-05-07T11:56:52;20.10;63.20
16437;DHT22;8328;52.206;21.006;2023-05-07T11:59:18;20.20;60.30
16437;DHT22;8328;52.206;21.006;2023-05-07T12:01:46;20.00;58.30
16437;DHT22;8328;52.206;21.006;2023-05-07T12:04:12;20.10;59.10
16437;DHT22;8328;52.206;21.006;2023-05-07T12:06:38;19.80;57.80
16437;DHT22;8328;52.206;21.006;2023-05-07T12:09:04;19.50;58.10
16437;DHT22;8328;52.206;21.006;2023-05-07T12:11:32;19.30;56.60
16437;DHT22;8328;52.206;21.006;2023-05-07T12:13:58;19.20;57.60
16437;DHT22;8328;52.206;21.006;2023-05-07T12:16:24;19.30;56.80
16437;DHT22;8328;52.206;21.006;2023-05-07T12:18:50;18.80;56.60
16437;DHT22;8328;52.206;21.006;2023-05-07T12:21:18;18.50;56.90
16437;DHT22;8328;52.206;21.006;2023-05-07T12:23:44;18.00;58.20
16437;DHT22;8328;52.206;21.006;2023-05-07T12:26:10;17.90;58.50
16437;DHT22;8328;52.206;21.006;2023-05-07T12:28:37;18.00;58.60
16437;DHT22;8328;52.206;21.006;2023-05-07T12:31:07;19.30;58.80
16437;DHT22;8328;52.206;21.006;2023-05-07T12:33:35;19.80;56.20
16437;DHT22;8328;52.206;21.006;2023-05-07T12:36:06;19.10;56.10
16437;DHT22;8328;52.206;21.006;2023-05-07T12:38:36;18.50;56.10
16437;DHT22;8328;52.206;21.006;2023-05-07T12:41:03;18.20;57.10
16437;DHT22;8328;52.206;21.006;2023-05-07T12:43:29;18.50;57.50
16437;DHT22;8328;52.206;21.006;2023-05-07T12:46:01;18.80;57.60
16437;DHT22;8328;52.206;21.006;2023-05-07T12:48:27;19.00;56.70
16437;DHT22;8328;52.206;21.006;2023-05-07T12:50:54;19.10;55.70
16437;DHT22;8328;52.206;21.006;2023-05-07T12:53:24;19.40;55.80
16437;DHT22;8328;52.206;21.006;2023-05-07T12:55:52;25.60;50.50
16437;DHT22;8328;52.206;21.006;2023-05-07T12:58:30;27.90;37.50
16437;DHT22;8328;52.206;21.006;2023-05-07T13:00:57;29.70;29.20
16437;DHT22;8328;52.206;21.006;2023-05-07T13:03:33;27.10;24.80
16437;DHT22;8328;52.206;21.006;2023-05-07T13:06:01;24.30;27.40
16437;DHT22;8328;52.206;21.006;2023-05-07T13:08:30;22.90;28.30
16437;DHT22;8328;52.206;21.006;2023-05-07T13:11:00;20.80;30.00
16437;DHT22;8328;52.206;21.006;2023-05-07T13:13:37;19.50;33.00
16437;DHT22;8328;52.206;21.006;2023-05-07T13:16:05;19.40;35.60
16437;DHT22;8328;52.206;21.006;2023-05-07T13:18:32;19.50;36.50
16437;DHT22;8328;52.206;21.006;2023-05-07T13:20:59;19.60;36.00
16437;DHT22;8328;52.206;21.006;2023-05-07T13:23:26;20.10;35.00
16437;DHT22;8328;52.206;21.006;2023-05-07T13:25:52;19.50;35.80
16437;DHT22;8328;52.206;21.006;2023-05-07T13:28:21;19.20;36.60
16437;DHT22;8328;52.206;21.006;2023-05-07T13:30:47;18.70;37.40
16437;DHT22;8328;52.206;21.006;2023-05-07T13:33:14;20.40;38.80
16437;DHT22;8328;52.206;21.006;2023-05-07T13:35:41;24.90;34.20
16437;DHT22;8328;52.206;21.006;2023-05-07T13:38:07;25.80;26.80
16437;DHT22;8328;52.206;21.006;2023-05-07T13:40:33;23.00;28.50
16437;DHT22;8328;52.206;21.006;2023-05-07T13:42:59;23.60;30.80
16437;DHT22;8328;52.206;21.006;2023-05-07T13:45:28;27.20;26.20
16437;DHT22;8328;52.206;21.006;2023-05-07T13:47:56;28.10;25.40
16437;DHT22;8328;52.206;21.006;2023-05-07T13:50:22;30.00;19.10
16437;DHT22;8328;52.206;21.006;2023-05-07T13:52:48;32.00;17.90
16437;DHT22;8328;52.206;21.006;2023-05-07T13:55:20;29.00;16.30
16437;DHT22;8328;52.206;21.006;2023-05-07T13:57:47;26.90;18.10
16437;DHT22;8328;52.206;21.006;2023-05-07T14:00:14;26.20;20.00
16437;DHT22;8328;52.206;21.006;2023-05-07T14:02:41;26.80;20.30
16437;DHT22;8328;52.206;21.006;2023-05-07T14:05:07;28.00;19.60
16437;DHT22;8328;52.206;21.006;2023-05-07T14:07:34;29.10;17.30
16437;DHT22;8328;52.206;21.006;2023-05-07T14:10:01;31.00;15.90
16437;DHT22;8328;52.206;21.006;2023-05-07T14:12:27;28.30;16.00
16437;DHT22;8328;52.206;21.006;2023-05-07T14:14:52;27.30;17.10
16437;DHT22;8328;52.206;21.006;2023-05-07T14:17:18;29.60;16.10
16437;DHT22;8328;52.206;21.006;2023-05-07T14:19:44;31.20;14.80
16437;DHT22;8328;52.206;21.006;2023-05-07T14:22:10;32.80;12.40
16437;DHT22;8328;52.206;21.006;2023-05-07T14:24:36;33.60;11.50
16437;DHT22;8328;52.206;21.006;2023-05-07T14:27:01;31.30;10.60
16437;DHT22;8328;52.206;21.006;2023-05-07T14:29:28;30.10;11.10
16437;DHT22;8328;52.206;21.006;2023-05-07T14:31:53;28.50;12.50
16437;DHT22;8328;52.206;21.006;2023-05-07T14:34:19;29.10;13.00
16437;DHT22;8328;52.206;21.006;2023-05-07T14:36:45;28.70;12.20
16437;DHT22;8328;52.206;21.006;2023-05-07T14:39:11;26.20;13.70
16437;DHT22;8328;52.206;21.006;2023-05-07T14:41:37;23.70;15.90
16437;DHT22;8328;52.206;21.006;2023-05-07T14:44:03;22.10;18.00
16437;DHT22;8328;52.206;21.006;2023-05-07T14:46:29;20.80;19.90
16437;DHT22;8328;52.206;21.006;2023-05-07T14:48:56;19.60;21.50
16437;DHT22;8328;52.206;21.006;2023-05-07T14:51:22;18.90;23.30
16437;DHT22;8328;52.206;21.006;2023-05-07T14:53:50;18.60;24.10
16437;DHT22;8328;52.206;21.006;2023-05-07T14:56:16;18.20;24.80
16437;DHT22;8328;52.206;21.006;2023-05-07T14:58:43;18.00;25.60
16437;DHT22;8328;52.206;21.006;2023-05-07T15:01:09;17.70;25.90
16437;DHT22;8328;52.206;21.006;2023-05-07T15:03:35;17.50;26.90
16437;DHT22;8328;52.206;21.006;2023-05-07T15:06:02;17.10;26.80
16437;DHT22;8328;52.206;21.006;2023-05-07T15:08:28;16.60;27.40
16437;DHT22;8328;52.206;21.006;2023-05-07T15:10:53;16.20;28.60
16437;DHT22;8328;52.206;21.006;2023-05-07T15:13:20;15.90;29.20
16437;DHT22;8328;52.206;21.006;2023-05-07T15:15:46;15.60;29.50
16437;DHT22;8328;52.206;21.006;2023-05-07T15:18:13;15.60;29.70
16437;DHT22;8328;52.206;21.006;2023-05-07T15:20:39;15.20;30.00
16437;DHT22;8328;52.206;21.006;2023-05-07T15:23:06;14.90;30.60
16437;DHT22;8328;52.206;21.006;2023-05-07T15:25:35;14.70;31.50
16437;DHT22;8328;52.206;21.006;2023-05-07T15:28:02;14.60;32.80
16437;DHT22;8328;52.206;21.006;2023-05-07T15:30:27;14.50;32.80
16437;DHT22;8328;52.206;21.006;2023-05-07T15:32:53;14.40;33.00
16437;DHT22;8328;52.206;21.006;2023-05-07T15:35:19;14.30;33.00
16437;DHT22;8328;52.206;21.006;2023-05-07T15:37:48;14.20;34.10